createdAt,value
2023-02-07T00:01:21.616Z,41.67
2023-02-07T00:03:48.472Z,41.09
2023-02-07T00:06:24.177Z,42.10
2023-02-07T00:08:51.816Z,41.07
2023-02-07T00:11:20.263Z,38.31
2023-02-07T00:13:49.002Z,35.52
2023-02-07T00:16:15.954Z,31.03
2023-02-07T00:18:42.513Z,27.92
2023-02-07T00:21:15.791Z,25.24
2023-02-07T00:23:42.926Z,20.26
2023-02-07T00:26:10.873Z,18.52
2023-02-07T00:28:37.938Z,17.91
2023-02-07T00:31:07.538Z,16.74
2023-02-07T00:33:35.420Z,17.64
2023-02-07T00:36:04.220Z,18.07
2023-02-07T00:38:30.830Z,19.17
2023-02-07T00:40:57.653Z,19.53
2023-02-07T00:43:29.736Z,20.87
2023-02-07T00:45:59.421Z,19.19
2023-02-07T00:48:27.782Z,18.69
2023-02-07T00:50:54.297Z,17.05
2023-02-07T00:53:21.208Z,14.51
2023-02-07T00:55:47.739Z,12.87
2023-02-07T00:58:14.353Z,11.88
2023-02-07T01:00:40.869Z,13.83
2023-02-07T01:03:07.413Z,14.28
2023-02-07T01:05:34.884Z,14.55
2023-02-07T01:08:01.914Z,16.24
2023-02-07T01:10:28.607Z,17.96
2023-02-07T01:12:55.108Z,17.91
2023-02-07T01:15:22.398Z,18.56
2023-02-07T01:17:48.936Z,19.10
2023-02-07T01:20:16.201Z,18.30
2023-02-07T01:22:42.910Z,21.66
2023-02-07T01:25:09.921Z,24.88
2023-02-07T01:27:36.821Z,26.35
2023-02-07T01:30:04.748Z,26.81
2023-02-07T01:32:34.612Z,28.80
2023-02-07T01:35:02.060Z,28.43
2023-02-07T01:37:28.553Z,27.65
2023-02-07T01:39:55.935Z,26.20
2023-02-07T01:42:25.618Z,23.34
2023-02-07T01:44:51.965Z,22.16
2023-02-07T01:47:21.784Z,20.39
2023-02-07T01:49:50.954Z,19.19
2023-02-07T01:52:32.035Z,19.11
2023-02-07T01:55:04.312Z,18.23
2023-02-07T01:57:30.873Z,17.13
2023-02-07T01:59:59.598Z,16.32
2023-02-07T02:02:30.621Z,15.05
2023-02-07T02:04:58.440Z,14.53
2023-02-07T02:07:26.718Z,14.69
2023-02-07T02:09:53.786Z,15.04
2023-02-07T02:12:51.553Z,15.94
2023-02-07T02:15:34.608Z,14.04
2023-02-07T02:18:25.935Z,14.24
2023-02-07T02:21:27.106Z,13.80
2023-02-07T02:24:30.908Z,13.80
2023-02-07T02:27:34.061Z,14.62
2023-02-07T02:30:37.797Z,14.90
2023-02-07T02:33:39.755Z,14.48
2023-02-07T02:36:18.225Z,16.23
2023-02-07T02:38:57.774Z,16.60
2023-02-07T02:41:31.750Z,16.42
2023-02-07T02:44:08.248Z,17.41
2023-02-07T02:46:38.634Z,17.59
2023-02-07T02:49:07.642Z,18.69
2023-02-07T02:51:34.050Z,17.78
2023-02-07T02:54:00.937Z,17.44
2023-02-07T02:57:01.302Z,17.97
2023-02-07T02:59:47.389Z,17.16
2023-02-07T03:02:32.661Z,14.12
2023-02-07T03:05:31.709Z,13.87
2023-02-07T03:08:10.632Z,13.50
2023-02-07T03:10:57.219Z,14.79
2023-02-07T03:13:35.873Z,12.32
2023-02-07T03:16:13.539Z,11.44
2023-02-07T03:18:45.877Z,10.83
2023-02-07T03:21:21.940Z,10.27
2023-02-07T03:23:52.241Z,8.27
2023-02-07T03:26:21.785Z,5.83
2023-02-07T03:28:53.986Z,5.25
2023-02-07T03:31:23.815Z,4.06
2023-02-07T03:33:55.951Z,2.73
2023-02-07T03:36:37.458Z,3.42
2023-02-07T03:39:04.466Z,1.54
2023-02-07T03:41:44.152Z,0.72
2023-02-07T03:44:13.577Z,1.71
2023-02-07T03:46:41.377Z,0.00
2023-02-07T03:49:07.979Z,0.00
2023-02-07T03:51:36.129Z,0.00
2023-02-07T03:54:02.661Z,0.00
2023-02-07T03:56:29.052Z,0.00
2023-02-07T03:58:55.454Z,0.00
2023-02-07T04:01:21.882Z,0.00
2023-02-07T04:03:48.285Z,0.00
2023-02-07T04:06:14.826Z,0.00
2023-02-07T04:08:41.206Z,0.00
2023-02-07T04:11:07.590Z,0.00
2023-02-07T04:13:34.096Z,0.00
2023-02-07T04:16:00.748Z,0.00
2023-02-07T04:18:27.207Z,0.00
2023-02-07T04:21:01.542Z,0.00
2023-02-07T04:23:28.018Z,0.00
2023-02-07T04:25:54.509Z,0.00
2023-02-07T04:28:20.991Z,0.00
2023-02-07T04:30:47.583Z,0.00
2023-02-07T04:33:14.133Z,0.00
2023-02-07T04:35:40.565Z,0.00
2023-02-07T04:38:07.073Z,0.00
2023-02-07T04:40:33.529Z,0.00
2023-02-07T04:42:59.951Z,0.00
2023-02-07T04:45:26.433Z,0.00
2023-02-07T04:47:52.873Z,0.00
2023-02-07T04:50:19.267Z,0.00
2023-02-07T04:52:45.705Z,0.00
2023-02-07T04:55:12.102Z,0.00
2023-02-07T04:57:38.485Z,0.00
2023-02-07T05:00:05.249Z,0.00
2023-02-07T05:02:31.704Z,0.00
2023-02-07T05:04:58.164Z,0.00
2023-02-07T05:07:24.608Z,0.00
2023-02-07T05:09:51.134Z,0.00
2023-02-07T05:12:17.515Z,0.00
2023-02-07T05:14:43.894Z,1.35
2023-02-07T05:17:11.527Z,4.86
2023-02-07T05:19:37.986Z,4.43
2023-02-07T05:22:04.432Z,2.60
2023-02-07T05:24:30.891Z,3.35
2023-02-07T05:26:57.312Z,3.00
2023-02-07T05:29:23.810Z,2.09
2023-02-07T05:32:08.737Z,1.47
2023-02-07T05:34:35.508Z,0.38
2023-02-07T05:37:01.945Z,0.00
2023-02-07T05:39:28.402Z,0.00
2023-02-07T05:41:54.781Z,0.00
2023-02-07T05:44:21.212Z,0.00
2023-02-07T05:46:47.630Z,0.00
2023-02-07T05:49:15.605Z,0.00
2023-02-07T05:51:41.981Z,0.00
2023-02-07T05:54:08.367Z,0.00
2023-02-07T05:56:34.848Z,0.00
2023-02-07T05:59:01.413Z,0.00
2023-02-07T06:01:27.870Z,0.00
2023-02-07T06:03:54.295Z,0.00
2023-02-07T06:06:20.697Z,0.00
2023-02-07T06:08:47.126Z,0.00
2023-02-07T06:11:13.604Z,0.00
2023-02-07T06:13:40.046Z,0.38
2023-02-07T06:16:06.793Z,2.45
2023-02-07T06:18:33.328Z,2.19
2023-02-07T06:20:59.741Z,4.47
2023-02-07T06:23:26.125Z,3.32
2023-02-07T06:25:52.623Z,5.17
2023-02-07T06:28:19.154Z,5.83
2023-02-07T06:30:45.812Z,11.30
2023-02-07T06:33:12.286Z,19.33
2023-02-07T06:35:39.153Z,24.65
2023-02-07T06:38:05.823Z,27.12
2023-02-07T06:40:32.215Z,29.52
2023-02-07T06:42:58.661Z,32.04
2023-02-07T06:45:25.086Z,31.29
2023-02-07T06:47:51.469Z,30.43
2023-02-07T06:50:18.053Z,29.78
2023-02-07T06:52:44.589Z,27.64
2023-02-07T06:55:11.009Z,25.39
2023-02-07T06:57:37.388Z,25.87
2023-02-07T07:00:05.306Z,21.77
2023-02-07T07:02:31.877Z,17.40
2023-02-07T07:04:58.345Z,15.05
2023-02-07T07:07:24.836Z,13.71
2023-02-07T07:09:51.320Z,11.61
2023-02-07T07:12:17.890Z,9.65
2023-02-07T07:14:44.338Z,9.19
2023-02-07T07:17:10.810Z,7.09
2023-02-07T07:19:37.232Z,5.62
2023-02-07T07:22:03.801Z,2.87
2023-02-07T07:24:30.297Z,1.72
2023-02-07T07:26:56.782Z,0.00
2023-02-07T07:29:23.199Z,0.00
2023-02-07T07:31:49.751Z,0.00
2023-02-07T07:34:16.228Z,0.00
2023-02-07T07:36:42.843Z,0.42
2023-02-07T07:39:09.298Z,1.55
2023-02-07T07:41:35.777Z,1.21
2023-02-07T07:44:02.298Z,4.02
2023-02-07T07:46:29.285Z,5.62
2023-02-07T07:48:55.747Z,9.81
2023-02-07T07:51:22.137Z,15.89
2023-02-07T07:53:48.799Z,20.37
2023-02-07T07:56:15.321Z,18.76
2023-02-07T07:58:41.825Z,22.28
2023-02-07T08:01:08.347Z,26.82
2023-02-07T08:03:34.810Z,34.06
2023-02-07T08:06:01.332Z,32.56
2023-02-07T08:08:27.795Z,35.08
2023-02-07T08:10:54.220Z,35.64
2023-02-07T08:13:21.452Z,42.62
2023-02-07T08:15:47.981Z,48.66
2023-02-07T08:18:14.474Z,63.17
2023-02-07T08:20:41.121Z,62.94
2023-02-07T08:23:07.727Z,55.85
2023-02-07T08:25:34.270Z,47.15
2023-02-07T08:28:03.314Z,23.06
2023-02-07T08:30:30.784Z,42.39
2023-02-07T08:32:57.333Z,64.62
2023-02-07T08:35:23.727Z,79.64
2023-02-07T08:37:50.955Z,85.81
2023-02-07T08:40:17.646Z,90.13
2023-02-07T08:42:44.536Z,91.46
2023-02-07T08:45:11.480Z,90.53
2023-02-07T08:47:37.934Z,91.24
2023-02-07T08:50:06.298Z,90.45
2023-02-07T08:52:32.752Z,88.02
2023-02-07T08:54:59.150Z,89.58
2023-02-07T08:57:25.747Z,90.50
2023-02-07T08:59:53.393Z,88.07
2023-02-07T09:02:19.872Z,87.34
2023-02-07T09:04:47.406Z,84.97
2023-02-07T09:07:14.707Z,77.94
2023-02-07T09:09:41.234Z,73.10
2023-02-07T09:12:07.982Z,68.32
2023-02-07T09:14:34.463Z,65.91
2023-02-07T09:17:00.944Z,63.67
2023-02-07T09:19:27.572Z,60.98
2023-02-07T09:21:54.144Z,60.35
2023-02-07T09:24:21.001Z,59.12
2023-02-07T09:26:47.386Z,57.91
2023-02-07T09:29:14.918Z,58.40
2023-02-07T09:31:42.344Z,60.29
2023-02-07T09:34:09.230Z,67.68
2023-02-07T09:36:36.062Z,73.85
2023-02-07T09:39:03.388Z,74.67
2023-02-07T09:42:03.484Z,70.91
2023-02-07T09:44:49.277Z,67.88
2023-02-07T09:47:20.079Z,65.75
2023-02-07T09:50:04.387Z,65.26
2023-02-07T09:52:35.907Z,64.66
2023-02-07T09:55:05.312Z,65.20
2023-02-07T09:57:37.850Z,66.31
2023-02-07T10:00:20.541Z,67.36
2023-02-07T10:03:22.376Z,67.30
2023-02-07T10:06:03.656Z,70.08
2023-02-07T10:08:40.860Z,72.62
2023-02-07T10:11:50.391Z,72.53
2023-02-07T10:14:36.048Z,72.36
2023-02-07T10:17:25.826Z,73.12
2023-02-07T10:20:06.229Z,73.02
2023-02-07T10:22:50.814Z,73.00
2023-02-07T10:25:43.346Z,75.20
2023-02-07T10:28:15.896Z,75.03
2023-02-07T10:31:17.008Z,76.52
2023-02-07T10:33:49.342Z,76.17
2023-02-07T10:36:17.378Z,75.67
2023-02-07T10:38:52.136Z,74.77
2023-02-07T10:41:40.919Z,75.12
2023-02-07T10:44:15.444Z,75.04
2023-02-07T10:46:45.152Z,74.29
2023-02-07T10:49:24.812Z,73.75
2023-02-07T10:51:54.853Z,75.65
2023-02-07T10:54:24.318Z,77.35
2023-02-07T10:56:56.011Z,76.75
2023-02-07T10:59:32.318Z,76.67
2023-02-07T11:01:59.553Z,78.40
2023-02-07T11:04:37.497Z,79.19
2023-02-07T11:07:07.455Z,80.38
2023-02-07T11:09:37.825Z,80.73
2023-02-07T11:12:25.423Z,81.43
2023-02-07T11:15:05.997Z,80.34
2023-02-07T11:17:34.953Z,80.68
2023-02-07T11:20:06.117Z,80.21
2023-02-07T11:22:32.696Z,80.57
2023-02-07T11:25:05.767Z,81.04
2023-02-07T11:27:40.993Z,80.18
2023-02-07T11:30:15.182Z,79.55
2023-02-07T11:32:41.991Z,79.96
2023-02-07T11:35:10.258Z,79.58
2023-02-07T11:37:38.680Z,78.86
2023-02-07T11:40:23.153Z,78.49
2023-02-07T11:42:57.134Z,79.35
2023-02-07T11:45:24.548Z,78.80
2023-02-07T11:47:54.909Z,79.53
2023-02-07T11:50:37.202Z,78.13
2023-02-07T11:53:03.822Z,77.78
2023-02-07T11:55:41.128Z,77.84
2023-02-07T11:58:11.488Z,78.48
2023-02-07T12:00:38.891Z,79.38
2023-02-07T12:03:22.310Z,78.63
2023-02-07T12:05:53.409Z,78.82
2023-02-07T12:08:24.038Z,78.78
2023-02-07T12:10:55.967Z,77.93
2023-02-07T12:14:04.077Z,78.19
2023-02-07T12:16:38.428Z,78.33
2023-02-07T12:19:13.169Z,77.55
2023-02-07T12:22:10.807Z,76.28
2023-02-07T12:24:43.647Z,77.16
2023-02-07T12:27:16.704Z,76.71
2023-02-07T12:29:53.278Z,75.55
2023-02-07T12:32:54.678Z,75.74
2023-02-07T12:36:03.457Z,75.76
2023-02-07T12:38:38.172Z,74.48
2023-02-07T12:41:15.856Z,75.29
2023-02-07T12:43:58.561Z,76.60
2023-02-07T12:47:00.726Z,75.97
2023-02-07T12:49:45.915Z,74.50
2023-02-07T12:52:41.003Z,74.56
2023-02-07T12:55:25.927Z,75.51
2023-02-07T12:58:14.367Z,73.89
2023-02-07T13:00:56.770Z,73.18
2023-02-07T13:03:47.822Z,72.33
2023-02-07T13:06:26.444Z,73.93
2023-02-07T13:09:07.490Z,72.98
2023-02-07T13:11:46.190Z,72.50
2023-02-07T13:14:48.328Z,72.32
2023-02-07T13:17:36.611Z,71.99
2023-02-07T13:20:02.999Z,71.43
2023-02-07T13:22:49.231Z,70.50
2023-02-07T13:25:23.419Z,71.74
2023-02-07T13:27:52.987Z,73.35
2023-02-07T13:30:21.043Z,71.63
2023-02-07T13:32:49.253Z,71.22
2023-02-07T13:35:21.644Z,72.16
2023-02-07T13:38:10.987Z,70.88
2023-02-07T13:40:46.302Z,69.41
2023-02-07T13:43:21.971Z,70.36
2023-02-07T13:45:56.303Z,70.29
2023-02-07T13:49:03.125Z,69.39
2023-02-07T13:51:51.518Z,69.47
2023-02-07T13:54:43.565Z,69.57
2023-02-07T13:57:53.538Z,68.98
2023-02-07T14:00:24.941Z,69.04
2023-02-07T14:02:56.391Z,68.56
2023-02-07T14:05:34.421Z,67.98
2023-02-07T14:08:03.874Z,68.26
2023-02-07T14:10:45.788Z,66.54
2023-02-07T14:13:30.675Z,65.94
2023-02-07T14:16:12.089Z,66.36
2023-02-07T14:18:49.965Z,66.17
2023-02-07T14:21:22.190Z,66.73
2023-02-07T14:23:57.587Z,66.03
2023-02-07T14:26:39.282Z,65.39
2023-02-07T14:29:50.858Z,65.30
2023-02-07T14:32:17.206Z,66.16
2023-02-07T14:35:25.578Z,66.80
2023-02-07T14:37:55.525Z,67.03
2023-02-07T14:40:31.743Z,66.22
2023-02-07T14:43:19.546Z,64.22
2023-02-07T14:45:52.035Z,64.23
2023-02-07T14:48:35.872Z,63.20
2023-02-07T14:51:02.502Z,64.26
2023-02-07T14:53:31.687Z,64.70
2023-02-07T14:56:04.449Z,63.78
2023-02-07T14:58:36.087Z,64.76
2023-02-07T15:01:02.674Z,65.23
2023-02-07T15:03:31.026Z,64.13
2023-02-07T15:06:03.104Z,64.01
2023-02-07T15:08:34.361Z,65.03
2023-02-07T15:11:06.845Z,64.94
2023-02-07T15:13:41.221Z,66.06
2023-02-07T15:16:10.723Z,66.40
2023-02-07T15:18:43.945Z,64.13
2023-02-07T15:21:34.291Z,64.37
2023-02-07T15:24:05.555Z,65.35
2023-02-07T15:26:34.755Z,65.99
2023-02-07T15:29:04.195Z,66.12
2023-02-07T15:31:31.316Z,66.25
2023-02-07T15:34:00.806Z,65.41
2023-02-07T15:36:29.871Z,65.59
2023-02-07T15:38:57.565Z,64.65
2023-02-07T15:41:24.095Z,65.85
2023-02-07T15:44:02.638Z,67.31
2023-02-07T15:46:49.024Z,66.64
2023-02-07T15:49:35.039Z,67.23
2023-02-07T15:52:26.035Z,67.68
2023-02-07T15:54:54.375Z,67.78
2023-02-07T15:57:20.754Z,68.26
2023-02-07T15:59:52.032Z,68.85
2023-02-07T16:02:34.562Z,68.99
2023-02-07T16:05:12.600Z,68.28
2023-02-07T16:07:42.469Z,68.91
2023-02-07T16:10:16.806Z,69.44
2023-02-07T16:12:49.933Z,69.87
2023-02-07T16:15:24.172Z,70.66
2023-02-07T16:17:50.882Z,69.85
2023-02-07T16:20:17.805Z,70.92
2023-02-07T16:22:45.684Z,70.89
2023-02-07T16:25:17.142Z,70.84
2023-02-07T16:27:45.480Z,72.80
2023-02-07T16:30:35.743Z,72.70
2023-02-07T16:33:12.912Z,73.93
2023-02-07T16:35:39.409Z,73.42
2023-02-07T16:38:05.925Z,74.32
2023-02-07T16:40:32.597Z,74.84
2023-02-07T16:43:02.090Z,75.52
2023-02-07T16:45:30.242Z,77.27
2023-02-07T16:47:58.940Z,77.54
2023-02-07T16:50:27.556Z,78.25
2023-02-07T16:52:56.903Z,77.36
2023-02-07T16:55:26.641Z,77.80
2023-02-07T16:57:53.415Z,78.37
2023-02-07T17:00:22.753Z,79.08
2023-02-07T17:02:51.500Z,79.61
2023-02-07T17:05:19.636Z,79.96
2023-02-07T17:07:46.289Z,79.93
2023-02-07T17:10:24.588Z,80.67
2023-02-07T17:12:51.333Z,80.12
2023-02-07T17:15:17.990Z,80.43
2023-02-07T17:17:44.430Z,81.40
2023-02-07T17:20:24.185Z,82.14
2023-02-07T17:22:52.319Z,82.13
2023-02-07T17:25:19.526Z,82.78
2023-02-07T17:27:46.700Z,83.28
2023-02-07T17:30:21.054Z,83.38
2023-02-07T17:32:47.727Z,83.12
2023-02-07T17:35:15.052Z,83.45
2023-02-07T17:37:42.379Z,82.99
2023-02-07T17:40:21.776Z,84.33
2023-02-07T17:42:48.402Z,84.08
2023-02-07T17:45:15.394Z,84.81
2023-02-07T17:47:42.050Z,85.32
2023-02-07T17:50:17.821Z,85.56
2023-02-07T17:52:44.366Z,85.50
2023-02-07T17:55:10.837Z,85.57
2023-02-07T17:57:37.318Z,86.09
2023-02-07T18:00:04.879Z,86.18
2023-02-07T18:02:39.164Z,86.61
2023-02-07T18:05:06.021Z,87.09
2023-02-07T18:07:32.507Z,87.83
2023-02-07T18:09:58.955Z,89.44
2023-02-07T18:12:25.361Z,89.61
2023-02-07T18:14:52.409Z,90.45
2023-02-07T18:17:19.273Z,90.22
2023-02-07T18:19:45.666Z,90.84
2023-02-07T18:22:12.101Z,90.63
2023-02-07T18:24:38.915Z,90.96
2023-02-07T18:27:05.734Z,90.64
2023-02-07T18:29:32.130Z,91.15
2023-02-07T18:31:58.714Z,90.69
2023-02-07T18:34:25.130Z,91.11
2023-02-07T18:36:51.610Z,90.76
2023-02-07T18:39:18.118Z,91.62
2023-02-07T18:41:44.569Z,91.39
2023-02-07T18:44:11.094Z,91.47
2023-02-07T18:46:37.783Z,91.79
2023-02-07T18:49:04.248Z,90.84
2023-02-07T18:51:30.705Z,91.68
2023-02-07T18:53:57.158Z,90.92
2023-02-07T18:56:26.166Z,91.83
2023-02-07T18:58:53.068Z,91.68
2023-02-07T19:01:20.407Z,90.91
2023-02-07T19:03:51.250Z,91.12
2023-02-07T19:06:17.761Z,91.87
2023-02-07T19:08:44.242Z,91.61
2023-02-07T19:11:10.723Z,91.75
2023-02-07T19:13:37.214Z,91.51
2023-02-07T19:16:11.001Z,91.08
2023-02-07T19:18:37.903Z,91.12
2023-02-07T19:21:15.460Z,91.13
2023-02-07T19:23:42.198Z,91.36
2023-02-07T19:26:09.919Z,91.15
2023-02-07T19:28:37.807Z,91.66
2023-02-07T19:31:09.936Z,91.16
2023-02-07T19:33:36.750Z,91.06
2023-02-07T19:36:08.642Z,90.85
2023-02-07T19:38:35.330Z,90.95
2023-02-07T19:41:02.933Z,91.44
2023-02-07T19:43:29.785Z,91.50
2023-02-07T19:45:56.378Z,91.24
2023-02-07T19:48:23.171Z,91.43
2023-02-07T19:51:10.912Z,90.89
2023-02-07T19:53:37.462Z,91.00
2023-02-07T19:56:08.834Z,91.37
2023-02-07T19:58:35.737Z,91.44
2023-02-07T20:01:02.142Z,90.88
2023-02-07T20:03:29.018Z,90.59
2023-02-07T20:05:59.781Z,90.48
2023-02-07T20:08:26.276Z,90.39
2023-02-07T20:10:52.931Z,90.93
2023-02-07T20:13:19.366Z,90.57
2023-02-07T20:15:47.022Z,90.31
2023-02-07T20:18:13.932Z,90.58
2023-02-07T20:20:42.509Z,90.98
2023-02-07T20:23:09.442Z,91.23
2023-02-07T20:25:37.992Z,90.06
2023-02-07T20:28:06.385Z,90.42
2023-02-07T20:30:33.935Z,89.82
2023-02-07T20:33:00.617Z,89.99
2023-02-07T20:35:27.381Z,90.31
2023-02-07T20:37:54.027Z,90.07
2023-02-07T20:40:20.607Z,89.86
2023-02-07T20:42:46.999Z,90.62
2023-02-07T20:45:13.425Z,90.00
2023-02-07T20:47:39.864Z,89.05
2023-02-07T20:50:06.806Z,89.33
2023-02-07T20:52:33.335Z,88.39
2023-02-07T20:54:59.768Z,88.28
2023-02-07T20:57:26.236Z,88.45
2023-02-07T20:59:52.603Z,88.43
2023-02-07T21:02:19.035Z,87.96
2023-02-07T21:04:45.493Z,88.64
2023-02-07T21:07:11.994Z,87.83
2023-02-07T21:09:38.590Z,88.64
2023-02-07T21:12:05.633Z,87.80
2023-02-07T21:14:33.010Z,87.45
2023-02-07T21:17:06.014Z,87.14
2023-02-07T21:19:33.256Z,86.43
2023-02-07T21:21:59.798Z,86.22
2023-02-07T21:24:26.561Z,86.27
2023-02-07T21:26:54.640Z,85.21
2023-02-07T21:29:22.518Z,85.74
2023-02-07T21:31:49.882Z,85.39
2023-02-07T21:34:20.777Z,85.50
2023-02-07T21:36:48.698Z,85.18
2023-02-07T21:39:15.704Z,84.71
2023-02-07T21:41:43.983Z,84.43
2023-02-07T21:44:11.959Z,83.98
2023-02-07T21:46:40.929Z,84.16
2023-02-07T21:49:14.112Z,84.87
2023-02-07T21:51:41.742Z,84.25
2023-02-07T21:54:08.251Z,83.98
2023-02-07T21:56:37.718Z,83.68
2023-02-07T21:59:22.652Z,82.06
2023-02-07T22:01:49.206Z,81.43
2023-02-07T22:04:16.105Z,81.18
2023-02-07T22:06:44.233Z,81.89
2023-02-07T22:09:13.137Z,82.07
2023-02-07T22:11:40.023Z,82.08
2023-02-07T22:14:07.053Z,81.56
2023-02-07T22:16:35.017Z,82.15
2023-02-07T22:19:03.373Z,82.20
2023-02-07T22:21:32.827Z,82.17
2023-02-07T22:23:59.762Z,82.06
2023-02-07T22:26:27.827Z,81.33
2023-02-07T22:28:54.918Z,81.15
2023-02-07T22:31:24.620Z,81.00
2023-02-07T22:33:52.786Z,80.83
2023-02-07T22:36:24.904Z,80.87
2023-02-07T22:38:51.362Z,80.88
2023-02-07T22:41:18.889Z,79.87
2023-02-07T22:43:45.468Z,78.34
2023-02-07T22:46:17.878Z,78.08
2023-02-07T22:48:45.040Z,78.38
2023-02-07T22:51:19.127Z,77.24
2023-02-07T22:53:45.937Z,76.64
2023-02-07T22:56:12.415Z,76.03
2023-02-07T22:58:40.481Z,75.26
2023-02-07T23:01:07.457Z,75.91
2023-02-07T23:03:34.495Z,75.80
2023-02-07T23:06:04.951Z,76.54
2023-02-07T23:08:31.595Z,75.97
2023-02-07T23:10:58.083Z,76.38
2023-02-07T23:13:24.538Z,76.62
2023-02-07T23:15:51.026Z,76.39
2023-02-07T23:18:17.433Z,75.72
2023-02-07T23:20:44.798Z,76.13
2023-02-07T23:23:12.316Z,76.06
2023-02-07T23:25:43.863Z,76.02
2023-02-07T23:28:10.947Z,76.53
2023-02-07T23:30:38.201Z,76.26
2023-02-07T23:33:06.629Z,75.97
2023-02-07T23:35:33.421Z,76.40
2023-02-07T23:38:03.649Z,75.68
2023-02-07T23:40:30.150Z,76.60
2023-02-07T23:42:56.581Z,76.94
2023-02-07T23:45:23.210Z,77.08
2023-02-07T23:47:49.598Z,78.18
2023-02-07T23:50:18.252Z,78.02
2023-02-07T23:52:44.799Z,78.25
2023-02-07T23:55:11.216Z,78.03
2023-02-07T23:57:37.658Z,79.28
